M I D A S
Marine Information and Data Acquisition System
Tripno 64 of the Zeeleeuw from 2001-10-29 07:55:50 to 2001-10-29 14:55:00
Back to CruiseResearch ActivitiesStationsMapUnderway DataData graphs

EquipmentUnitsComment
TimeDGPSUTC
LatitudeDGPSDM.mWGS84
LongitudeDGPSDM.mWGS84
HeadingGyrodeg 
SOGDGPSknotsSpeed over ground
COGDGPSdegCourse over ground
DepthEcho soundermeters200 kHz
Missing or incorrect values are displayed as -999
Navigation data collected by the RV Zeeleeuw from 2001-10-29 07:55:50 to 2001-10-29 14:55:00
                                                                                    Next 1000 lines
Time Latitude Longitude Heading SOG COG Depth
2001-10-29 07:56:00 51°13.689 2°55.905 174   356.3 -999
2001-10-29 07:56:05 51°13.689 2°55.905 174   225.3 -999
2001-10-29 08:09:11 51°13.689 2°55.905 350   342.4 -999
2001-10-29 08:09:17 51°13.689 2°55.905 349.5   301.9 -999
2001-10-29 08:09:21 51°13.69 2°55.905 349.3   318.3 -999
2001-10-29 08:09:26 51°13.689 2°55.905 349 0.1 334.2 -999
2001-10-29 08:09:31 51°13.689 2°55.905 348.5   12.5 -999
2001-10-29 08:09:37 51°13.689 2°55.905 348   5.5 -999
2001-10-29 08:09:41 51°13.689 2°55.905 347.7   165.2 -999
2001-10-29 08:09:47 51°13.689 2°55.905 347.5   129.7 -999
2001-10-29 08:09:51 51°13.689 2°55.905 347.3 0.1 134 -999
2001-10-29 08:09:56 51°13.689 2°55.905 347.2   140.2 -999
2001-10-29 08:10:01 51°13.689 2°55.905 347.2   270.1 -999
2001-10-29 08:10:07 51°13.689 2°55.905 346.8   311.8 -999
2001-10-29 08:10:11 51°13.689 2°55.905 346.5   319.9 -999
2001-10-29 08:10:17 51°13.689 2°55.906 346.2   48 -999
2001-10-29 08:10:21 51°13.689 2°55.906 346   125.5 -999
2001-10-29 08:10:27 51°13.689 2°55.906 345.8   144.4 -999
2001-10-29 08:10:31 51°13.689 2°55.906 345.7   153.1 -999
2001-10-29 08:10:36 51°13.689 2°55.905 345.5   53.2 -999
2001-10-29 08:10:41 51°13.689 2°55.905 345   309.9 -999
2001-10-29 08:10:46 51°13.689 2°55.906 344.7   87 -999
2001-10-29 08:10:51 51°13.689 2°55.905 344.5   168 -999
2001-10-29 08:10:57 51°13.689 2°55.905 344.2   170.3 -999
2001-10-29 08:11:01 51°13.689 2°55.905 343.8   308.2 -999
2001-10-29 08:11:06 51°13.689 2°55.905 343.8   298.4 -999
2001-10-29 08:11:11 51°13.689 2°55.905 343.5   329.6 -999
2001-10-29 08:11:16 51°13.689 2°55.905 343.3   181.5 -999
2001-10-29 08:11:21 51°13.689 2°55.905 343   275.1 -999
2001-10-29 08:11:27 51°13.689 2°55.905 342.8   306.1 -999
2001-10-29 08:11:31 51°13.689 2°55.905 342.5   314.6 -999
2001-10-29 08:11:37 51°13.689 2°55.905 342.2   270.9 -999
2001-10-29 08:11:41 51°13.689 2°55.905 341.8   180.1 -999
2001-10-29 08:11:46 51°13.689 2°55.905 341.5   149.9 -999
2001-10-29 08:11:51 51°13.689 2°55.905 341.3   137 -999
2001-10-29 08:11:56 51°13.689 2°55.905 340.8   214.5 -999
2001-10-29 08:12:01 51°13.689 2°55.905 340.7   271.8 -999
2001-10-29 08:12:07 51°13.689 2°55.905 340.2   276.4 -999
2001-10-29 08:12:11 51°13.689 2°55.905 340   285.1 -999
2001-10-29 08:12:16 51°13.689 2°55.905 339.5   186.6 -999
2001-10-29 08:12:21 51°13.689 2°55.905 339.2   318.4 -999
2001-10-29 08:12:26 51°13.689 2°55.905 338.7   290.4 -999
2001-10-29 08:12:31 51°13.689 2°55.905 338.3   256.4 -999
2001-10-29 08:12:37 51°13.689 2°55.905 337.8   219.9 -999
2001-10-29 08:12:41 51°13.689 2°55.905 337.5   103.3 -999
2001-10-29 08:12:47 51°13.689 2°55.905 337.3   69 -999
2001-10-29 08:12:51 51°13.689 2°55.906 336.8   26.4 -999
2001-10-29 08:12:56 51°13.689 2°55.906 336.5   14.8 -999
2001-10-29 08:13:01 51°13.689 2°55.906 335.8   91.4 -999
2001-10-29 08:13:06 51°13.689 2°55.906 335.2   117.3 -999
2001-10-29 08:13:11 51°13.689 2°55.906 334.5   88.9 -999
2001-10-29 08:13:17 51°13.689 2°55.906 334 0.1 71.6 -999
2001-10-29 08:13:21 51°13.689 2°55.906 333.5   103.3 -999
2001-10-29 08:13:26 51°13.689 2°55.906 333   120.1 -999
2001-10-29 08:13:31 51°13.689 2°55.906 332.8   144.3 -999
2001-10-29 08:13:36 51°13.689 2°55.905 332.5   228.7 -999
2001-10-29 08:13:41 51°13.689 2°55.905 332.2   311.6 -999
2001-10-29 08:13:47 51°13.689 2°55.905 331.7   26.8 -999
2001-10-29 08:13:51 51°13.689 2°55.905 331.3   11.2 -999
2001-10-29 08:13:56 51°13.689 2°55.905 331   331.5 -999
2001-10-29 08:14:01 51°13.689 2°55.905 330.7   343.4 -999
2001-10-29 08:14:06 51°13.689 2°55.905 330.2   319.8 -999
2001-10-29 08:14:11 51°13.689 2°55.905 329.8   355.5 -999
2001-10-29 08:14:17 51°13.688 2°55.904 329.3   355 -999
2001-10-29 08:14:21 51°13.688 2°55.904 329.2   232.3 -999
2001-10-29 08:14:27 51°13.688 2°55.904 328.8   139.7 -999
2001-10-29 08:14:31 51°13.688 2°55.904 328.7   143.1 -999
2001-10-29 08:14:36 51°13.688 2°55.904 328.3   118.4 -999
2001-10-29 08:14:41 51°13.688 2°55.904 327.8   271.9 -999
2001-10-29 08:14:46 51°13.688 2°55.904 327.3   244 -999
2001-10-29 08:14:51 51°13.688 2°55.904 327   127.7 -999
2001-10-29 08:14:57 51°13.688 2°55.904 326.8   144 -999
2001-10-29 08:15:01 51°13.688 2°55.904 326.5   307.6 -999
2001-10-29 08:15:06 51°13.688 2°55.904 326.3   250.6 -999
2001-10-29 08:15:11 51°13.688 2°55.904 326   145.1 -999
2001-10-29 08:15:16 51°13.688 2°55.904 325.8   159.2 -999
2001-10-29 08:15:21 51°13.688 2°55.904 325.5   153.1 -999
2001-10-29 08:15:27 51°13.688 2°55.904 325.3   149.8 -999
2001-10-29 08:15:31 51°13.688 2°55.904 325   139.9 -999
2001-10-29 08:15:37 51°13.688 2°55.905 324.7   271.9 -999
2001-10-29 08:15:41 51°13.688 2°55.905 324.3   289.4 -999
2001-10-29 08:15:46 51°13.688 2°55.905 324   80 -999
2001-10-29 08:15:51 51°13.688 2°55.905 336.2   79.4 -999
2001-10-29 08:15:56 51°13.688 2°55.905 19.7   67.7 -999
2001-10-29 08:16:01 51°13.688 2°55.905 56.2   22.6 -999
2001-10-29 08:16:07 51°13.688 2°55.906 100.5   39.1 -999
2001-10-29 08:16:11 51°13.688 2°55.906 137.2   306.3 -999
2001-10-29 08:16:16 51°13.688 2°55.905 143   328.4 -999
2001-10-29 08:16:21 51°13.688 2°55.905 142.7   308.6 -999
2001-10-29 08:16:26 51°13.688 2°55.905 142.3 0.1 327.2 -999
2001-10-29 08:16:31 51°13.688 2°55.905 142.2   321.6 -999
2001-10-29 08:16:37 51°13.688 2°55.905 141.8   19.5 -999
2001-10-29 08:16:40 51°13.688 2°55.905 141.7   92.3 6.9
2001-10-29 08:16:43 51°13.688 2°55.905 141.8   77.2 6.9
2001-10-29 08:16:46 51°13.688 2°55.905 141.2   20.7 6.9
2001-10-29 08:16:51 51°13.688 2°55.905 139.8   328.8 7
2001-10-29 08:16:57 51°13.688 2°55.905 139.3   331 7.1
2001-10-29 08:17:02 51°13.688 2°55.905 138.8   327.7 7.1
2001-10-29 08:17:07 51°13.688 2°55.905 138.5   288 7.1
2001-10-29 08:17:12 51°13.688 2°55.905 138.3   168.9 7.1
2001-10-29 08:17:17 51°13.688 2°55.905 138.2   151.2 7.2
2001-10-29 08:17:22 51°13.688 2°55.905 137.8   53.2 7.1
2001-10-29 08:17:26 51°13.688 2°55.905 137.3   25.5 7.2
2001-10-29 08:17:31 51°13.688 2°55.905 137   94.5 7.2
2001-10-29 08:17:37 51°13.688 2°55.905 136.5   137.4 7.2
2001-10-29 08:17:42 51°13.688 2°55.905 136.3   186.5 7.2
2001-10-29 08:17:47 51°13.688 2°55.905 136   210.5 7.2
2001-10-29 08:17:52 51°13.688 2°55.905 135.5   109.3 7.3
2001-10-29 08:17:57 51°13.688 2°55.905 135.2 0.1 98.2 7.3
2001-10-29 08:18:02 51°13.687 2°55.905 134.7 0.1 104.8 7.3
2001-10-29 08:18:06 51°13.688 2°55.905 134.3   142.6 7.3
2001-10-29 08:18:12 51°13.688 2°55.905 134   180.7 7.3
2001-10-29 08:18:16 51°13.688 2°55.905 133.8   301.8 7.3
2001-10-29 08:18:22 51°13.687 2°55.905 133.3   339.9 7.3
2001-10-29 08:18:27 51°13.688 2°55.905 133   89 7.3
2001-10-29 08:18:32 51°13.688 2°55.905 132.8   337 7
2001-10-29 08:18:37 51°13.688 2°55.905 132.5   334.2 7.3
2001-10-29 08:18:42 51°13.688 2°55.905 132.2   152.3 7.3
2001-10-29 08:18:46 51°13.688 2°55.905 131.8   167.4 7.3
2001-10-29 08:18:52 51°13.688 2°55.905 131.5   221.9 7.2
2001-10-29 08:18:57 51°13.688 2°55.905 131.2   329 7.3
2001-10-29 08:19:02 51°13.688 2°55.905 130.8   260.4 7.3
2001-10-29 08:19:06 51°13.688 2°55.905 130.5   242.6 7.3
2001-10-29 08:19:11 51°13.688 2°55.905 130.2   246.8 7.3
2001-10-29 08:19:17 51°13.688 2°55.905 129.8   290.7 7.4
2001-10-29 08:19:22 51°13.688 2°55.905 129.3   312.9 7.1
2001-10-29 08:19:26 51°13.688 2°55.905 129   317.6 7.1
2001-10-29 08:19:32 51°13.688 2°55.904 128.7   346.3 7.3
2001-10-29 08:19:37 51°13.688 2°55.904 128.2   57.1 7.1
2001-10-29 08:19:42 51°13.688 2°55.904 128   298 7.3
2001-10-29 08:19:46 51°13.688 2°55.904 127.8   305.5 7.3
2001-10-29 08:19:52 51°13.688 2°55.904 127.5   287 7.3
2001-10-29 08:19:57 51°13.688 2°55.904 127.3 0.1 272.2 7.3
2001-10-29 08:20:02 51°13.688 2°55.904 126.8   292.6 7.2
2001-10-29 08:20:07 51°13.688 2°55.904 126.5   281.6 7.2
2001-10-29 08:20:12 51°13.688 2°55.904 126.2 0.1 109.4 -999
2001-10-29 08:20:17 51°13.688 2°55.904 126 0.1 110.6 7.3
2001-10-29 08:20:22 51°13.688 2°55.904 125.5   130.9 7.3
2001-10-29 08:20:26 51°13.688 2°55.904 125.2   124.9 7.4
2001-10-29 08:20:31 51°13.688 2°55.904 124.8   130.4 7.3
2001-10-29 08:20:37 51°13.688 2°55.904 124.7   148.9 7.4
2001-10-29 08:20:42 51°13.688 2°55.904 124.3   150.7 7.3
2001-10-29 08:20:47 51°13.688 2°55.904 124.2   142.3 7.4
2001-10-29 08:20:52 51°13.688 2°55.904 124   296.7 7.1
2001-10-29 08:20:57 51°13.688 2°55.904 123.8   268.2 7.4
2001-10-29 08:21:02 51°13.688 2°55.904 123.5   273.3 7.4
2001-10-29 08:21:06 51°13.688 2°55.905 123.3   140 7.4
2001-10-29 08:21:12 51°13.688 2°55.904 123.2   110.2 7.4
2001-10-29 08:21:17 51°13.688 2°55.904 122.8   2.6 7.4
2001-10-29 08:21:22 51°13.688 2°55.905 122.5   19.5 7.4
2001-10-29 08:21:26 51°13.688 2°55.904 122.2   44.9 7.4
2001-10-29 08:21:32 51°13.688 2°55.905 121.7   76 7.4
2001-10-29 08:21:37 51°13.688 2°55.905 121.2 0.1 98.2 7.2
2001-10-29 08:21:42 51°13.688 2°55.905 120.8   61.8 7.4
2001-10-29 08:21:47 51°13.688 2°55.905 120.5   358.9 7.3
2001-10-29 08:21:52 51°13.688 2°55.905 120.2   297.1 7.4
2001-10-29 08:21:57 51°13.688 2°55.905 120   265.6 7.4
2001-10-29 08:22:02 51°13.687 2°55.905 120   188.3 7.4
2001-10-29 08:22:06 51°13.687 2°55.905 119.7   126.1 7.4
2001-10-29 08:22:12 51°13.687 2°55.904 119.3   19.5 7.4
2001-10-29 08:22:17 51°13.687 2°55.904 119   29.3 7.4
2001-10-29 08:22:22 51°13.687 2°55.904 118.5 0.1 98.4 7.4
2001-10-29 08:22:26 51°13.687 2°55.904 118.2   128.4 7.4
2001-10-29 08:22:31 51°13.687 2°55.904 118   166.9 7.4
2001-10-29 08:22:36 51°13.687 2°55.904 117.7   239.7 7.4
2001-10-29 08:22:42 51°13.687 2°55.904 117.5   227.6 7.4
2001-10-29 08:22:47 51°13.687 2°55.904 117.2   186 7.4
2001-10-29 08:22:52 51°13.687 2°55.904 117   83.3 7.4
2001-10-29 08:22:57 51°13.687 2°55.904 116.7   74.1 7.4
2001-10-29 08:23:02 51°13.687 2°55.904 116.3   71.4 7.4
2001-10-29 08:23:07 51°13.687 2°55.904 116   293.9 7.3
2001-10-29 08:23:12 51°13.687 2°55.903 115.7   302.6 7.3
2001-10-29 08:23:17 51°13.687 2°55.904 115.3 0.1 305.2 7.4
2001-10-29 08:23:22 51°13.687 2°55.904 115.2   305.7 7.4
2001-10-29 08:23:26 51°13.687 2°55.904 114.8   323.9 7.4
2001-10-29 08:23:32 51°13.687 2°55.904 114.5   353.6 7.4
2001-10-29 08:23:37 51°13.687 2°55.904 114.2   24.9 7.4
2001-10-29 08:23:42 51°13.687 2°55.904 113.8   359.1 7.4
2001-10-29 08:23:47 51°13.687 2°55.904 113.5   304.4 7.4
2001-10-29 08:23:51 51°13.687 2°55.905 113.3   342.6 7.4
2001-10-29 08:23:57 51°13.687 2°55.905 113.2   340.4 7.4
2001-10-29 08:24:02 51°13.687 2°55.905 112.8   10.1 7.4
2001-10-29 08:24:07 51°13.687 2°55.905 112.5   343.2 7.4
2001-10-29 08:24:12 51°13.687 2°55.905 112.2 0.1 347.3 7.4
2001-10-29 08:24:17 51°13.687 2°55.905 112   1.8 7.4
2001-10-29 08:24:22 51°13.687 2°55.905 111.8   37.9 7.3
2001-10-29 08:24:27 51°13.687 2°55.905 111.5   136.8 7.2
2001-10-29 08:24:32 51°13.687 2°55.905 111.2   141.1 7.2
2001-10-29 08:24:37 51°13.687 2°55.905 111   119.4 7.1
2001-10-29 08:24:42 51°13.687 2°55.905 110.7   106.3 7.4
2001-10-29 08:24:47 51°13.687 2°55.905 110.5   121.6 7.3
2001-10-29 08:24:51 51°13.687 2°55.905 110.2   340.1 7.1
2001-10-29 08:24:56 51°13.687 2°55.905 110   302 6.9
2001-10-29 08:25:02 51°13.687 2°55.905 109.7   250 6.9
2001-10-29 08:25:07 51°13.687 2°55.905 109.5   214.4 6.9
2001-10-29 08:25:12 51°13.688 2°55.905 109.3   225 6.8
2001-10-29 08:25:17 51°13.688 2°55.905 109   315.6 6.8
2001-10-29 08:25:22 51°13.688 2°55.905 108.7   34.1 7.3
2001-10-29 08:25:27 51°13.688 2°55.905 108.3 0.1 95.5 6.8
2001-10-29 08:25:32 51°13.688 2°55.905 108   118.1 6.7
2001-10-29 08:25:37 51°13.688 2°55.905 107.8   154.8 7
2001-10-29 08:25:42 51°13.688 2°55.905 107.7   171 6.6
2001-10-29 08:25:47 51°13.688 2°55.905 107.3   325.3 7.3
2001-10-29 08:25:52 51°13.688 2°55.905 107.2   325.6 7.4
2001-10-29 08:25:57 51°13.688 2°55.905 107   315.8 7.4
2001-10-29 08:26:02 51°13.687 2°55.905 106.8   102.7 7.4
2001-10-29 08:26:06 51°13.687 2°55.905 106.7   71.5 7.4
2001-10-29 08:26:12 51°13.687 2°55.906 106.3   308.8 7.3
2001-10-29 08:26:17 51°13.687 2°55.906 106.2   5 7.1
2001-10-29 08:26:22 51°13.687 2°55.906 106   102.7 7.1
2001-10-29 08:26:27 51°13.687 2°55.906 105.7   52.4 7.1
2001-10-29 08:26:31 51°13.687 2°55.906 105.5   64.2 7.4
2001-10-29 08:26:37 51°13.688 2°55.906 105.2   10.4 7.3
2001-10-29 08:26:42 51°13.688 2°55.906 105   337.9 7.2
2001-10-29 08:26:46 51°13.688 2°55.906 104.8 0.1 317.4 6.9
2001-10-29 08:26:52 51°13.688 2°55.906 104.5   325.5 6.9
2001-10-29 08:26:57 51°13.688 2°55.906 104.3   342.1 5.8
2001-10-29 08:27:02 51°13.688 2°55.906 104   357.1 7
2001-10-29 08:27:07 51°13.687 2°55.906 103.8   69.7 7.4
2001-10-29 08:27:11 51°13.688 2°55.906 103.7   53.5 7.4
2001-10-29 08:27:17 51°13.688 2°55.906 103.3   8.4 7.4
2001-10-29 08:27:22 51°13.688 2°55.906 103.2   26.8 7.2
2001-10-29 08:27:27 51°13.688 2°55.906 103   18.1 7
2001-10-29 08:27:32 51°13.688 2°55.906 102.7   29.5 6.6
2001-10-29 08:27:37 51°13.688 2°55.906 102.5   327.2 6.6
2001-10-29 08:27:42 51°13.687 2°55.906 102.3   307.7 7.3
2001-10-29 08:27:47 51°13.687 2°55.906 102   150.3 7.2
2001-10-29 08:27:51 51°13.687 2°55.906 101.8   135.8 6.9
2001-10-29 08:27:57 51°13.687 2°55.906 101.7   213.6 7
2001-10-29 08:28:02 51°13.688 2°55.906 101.5   226.4 7.4
2001-10-29 08:28:07 51°13.688 2°55.906 101.3   199.2 7.3
2001-10-29 08:28:12 51°13.688 2°55.906 101.3   184.4 7.3
2001-10-29 08:28:17 51°13.688 2°55.906 101.2   142.4 7.4
2001-10-29 08:28:22 51°13.688 2°55.906 100.8   40.4 7.4
2001-10-29 08:28:27 51°13.688 2°55.906 100.5   45.2 7.5
2001-10-29 08:28:31 51°13.688 2°55.906 100.3 0.1 88.7 7.3
2001-10-29 08:28:37 51°13.688 2°55.906 99.8   95.4 7.2
2001-10-29 08:28:42 51°13.688 2°55.906 99.7   294.1 7.4
2001-10-29 08:28:46 51°13.688 2°55.906 99.5   342.2 7.5
2001-10-29 08:28:52 51°13.687 2°55.906 99.3   78.8 7.5
2001-10-29 08:28:56 51°13.687 2°55.906 99.2 0.1 118.2 7.5
2001-10-29 08:29:02 51°13.687 2°55.905 99 0.1 118.4 7.3
2001-10-29 08:29:06 51°13.687 2°55.905 98.8   16.7 7.4
2001-10-29 08:29:11 51°13.687 2°55.906 98.7   336.8 -999
2001-10-29 08:29:17 51°13.687 2°55.906 98.5   118.2 7.3
2001-10-29 08:29:22 51°13.687 2°55.905 98.3   111.3 7.3
2001-10-29 08:29:27 51°13.687 2°55.905 98   347.3 7.4
2001-10-29 08:29:32 51°13.687 2°55.905 97.8   38.2 -999
2001-10-29 08:29:37 51°13.687 2°55.905 97.7   140.5 7.1
2001-10-29 08:29:42 51°13.687 2°55.905 97.5   301.1 7.3
2001-10-29 08:29:47 51°13.687 2°55.906 97.3   194.2 7.5
2001-10-29 08:29:52 51°13.687 2°55.906 97.2 0.1 140.6 7.3
2001-10-29 08:29:57 51°13.687 2°55.906 97   154.1 7.3
2001-10-29 08:30:02 51°13.687 2°55.906 96.8   192.6 7.3
2001-10-29 08:30:07 51°13.687 2°55.906 96.7   160 7.3
2001-10-29 08:30:11 51°13.687 2°55.906 96.5   83.7 7.2
2001-10-29 08:30:17 51°13.687 2°55.905 96.3   320.6 7.2
2001-10-29 08:30:22 51°13.687 2°55.906 96.2   319.7 7.2
2001-10-29 08:30:26 51°13.687 2°55.905 96   304.3 7.2
2001-10-29 08:30:31 51°13.687 2°55.906 95.8   219 7.2
2001-10-29 08:30:37 51°13.687 2°55.905 95.7   219.1 7.5
2001-10-29 08:30:42 51°13.687 2°55.905 95.5   306.8 7.4
2001-10-29 08:30:46 51°13.687 2°55.905 95.5   334.9 7.4
2001-10-29 08:30:52 51°13.687 2°55.905 95.3   15.3 7.1
2001-10-29 08:30:57 51°13.687 2°55.905 95   339.8 7.2
2001-10-29 08:31:02 51°13.687 2°55.905 94.8   319.2 7.1
2001-10-29 08:31:07 51°13.687 2°55.905 94.5   340.2 7.1
2001-10-29 08:31:12 51°13.688 2°55.906 94.3   318.6 7.1
2001-10-29 08:31:17 51°13.688 2°55.906 94.2   312.2 7.2
2001-10-29 08:31:22 51°13.687 2°55.906 94.2 0.1 322.3 7.2
2001-10-29 08:31:27 51°13.687 2°55.906 94.3   159.4 7.4
2001-10-29 08:31:32 51°13.687 2°55.906 94.3 0.1 150.4 7.4
2001-10-29 08:31:37 51°13.687 2°55.906 94.3 0.1 150.5 7.5
2001-10-29 08:31:42 51°13.687 2°55.906 94.5 0.1 149.7 7.6
2001-10-29 08:31:47 51°13.687 2°55.906 94.2   143.6 7.5
2001-10-29 08:31:52 51°13.687 2°55.906 94.2   147.1 7.6
2001-10-29 08:31:57 51°13.687 2°55.906 94   137.3 7.5
2001-10-29 08:32:02 51°13.687 2°55.906 93.8   264.3 7.5
2001-10-29 08:32:07 51°13.687 2°55.906 93.7   134.9 7.6
2001-10-29 08:32:11 51°13.687 2°55.906 93.7   130.3 7.5
2001-10-29 08:32:17 51°13.688 2°55.906 93.3   128.6 7.3
2001-10-29 08:32:22 51°13.688 2°55.906 93.2   47.1 6.9
2001-10-29 08:32:26 51°13.688 2°55.906 92.8   50.3 7.2
2001-10-29 08:32:32 51°13.688 2°55.906 92.5   61 7.3
2001-10-29 08:32:37 51°13.688 2°55.906 92.3   71.5 7.3
2001-10-29 08:32:42 51°13.688 2°55.906 92   228 7.3
2001-10-29 08:32:47 51°13.688 2°55.906 92   234 7.4
2001-10-29 08:32:52 51°13.688 2°55.906 91.8   231.1 7.5
2001-10-29 08:32:57 51°13.688 2°55.906 91.8   229 7.5
2001-10-29 08:33:02 51°13.688 2°55.906 91.8   227.7 7.5
2001-10-29 08:33:06 51°13.688 2°55.906 91.7   183.7 7.5
2001-10-29 08:33:11 51°13.688 2°55.906 91.5   112 7.5
2001-10-29 08:33:16 51°13.688 2°55.906 91.3   6.5 7.4
2001-10-29 08:33:22 51°13.688 2°55.906 91.2   18.9 6.9
2001-10-29 08:33:27 51°13.688 2°55.906 91   221.9 6.9
2001-10-29 08:33:32 51°13.688 2°55.906 90.8   180.3 7.5
2001-10-29 08:33:37 51°13.688 2°55.906 90.8   149 7.6
2001-10-29 08:33:42 51°13.688 2°55.906 90.8   131.6 7.5
2001-10-29 08:33:59 51°13.688 2°55.906 90.7   80.4 7.6
2001-10-29 08:34:13 51°13.688 2°55.906 90.2   46.8 6.3
2001-10-29 08:34:18 51°13.688 2°55.906 89.8   34.8 7.4
2001-10-29 08:34:23 51°13.689 2°55.906 89.5   78.8 7.4
2001-10-29 08:34:28 51°13.688 2°55.906 89.5   203 7.5
2001-10-29 08:34:33 51°13.688 2°55.906 89.7   209.9 7.6
2001-10-29 08:34:38 51°13.688 2°55.906 89.5   222.8 7.6
2001-10-29 08:34:43 51°13.688 2°55.906 89.3   25.5 7.3
2001-10-29 08:34:48 51°13.688 2°55.906 89   29.4 7.6
2001-10-29 08:34:53 51°13.688 2°55.906 88.8   239.8 7.6
2001-10-29 08:34:58 51°13.688 2°55.906 88.7   226.4 7.6
2001-10-29 08:35:03 51°13.688 2°55.906 88.7   212.3 7.6
2001-10-29 08:35:07 51°13.688 2°55.906 88.8   171 7.6
2001-10-29 08:35:13 51°13.688 2°55.906 88.8   103.8 7.6
2001-10-29 08:35:18 51°13.688 2°55.906 88.7   92.1 7.5
2001-10-29 08:35:23 51°13.688 2°55.906 88.5   124.2 7.4
2001-10-29 08:35:28 51°13.688 2°55.906 88.5   97.5 7.6
2001-10-29 08:35:34 51°13.688 2°55.906 88.3   37.2 7.6
2001-10-29 08:35:38 51°13.688 2°55.906 88.2   276.1 7.3
2001-10-29 08:35:43 51°13.688 2°55.906 88.2   247.8 7.6
2001-10-29 08:35:48 51°13.688 2°55.906 88.2   188.9 7.6
2001-10-29 08:35:53 51°13.688 2°55.906 88.2   195.9 7.6
2001-10-29 08:35:58 51°13.688 2°55.906 88   229.1 7.6
2001-10-29 08:36:03 51°13.688 2°55.906 87.8   237.7 7.5
2001-10-29 08:36:08 51°13.688 2°55.906 87.8   174.2 7.5
2001-10-29 08:36:13 51°13.688 2°55.906 87.8   193.5 7.5
2001-10-29 08:36:18 51°13.688 2°55.906 87.8   254.4 7.6
2001-10-29 08:36:23 51°13.688 2°55.906 87.8   252.9 7.6
2001-10-29 08:36:28 51°13.688 2°55.906 87.8   237.3 7.6
2001-10-29 08:36:33 51°13.688 2°55.906 88   244.5 7.5
2001-10-29 08:36:38 51°13.688 2°55.906 88   226.6 7.5
2001-10-29 08:36:43 51°13.688 2°55.906 87.8   251.6 7.5
2001-10-29 08:36:48 51°13.688 2°55.906 87.7   218.3 7.6
2001-10-29 08:36:53 51°13.688 2°55.906 87.5   152.4 7.6
2001-10-29 08:36:58 51°13.688 2°55.906 87.5   175.7 7.5
2001-10-29 08:37:03 51°13.688 2°55.906 87.5   275.1 7.7
2001-10-29 08:37:08 51°13.688 2°55.906 87.7   248.4 7.7
2001-10-29 08:37:13 51°13.688 2°55.906 87.7   232 7.6
2001-10-29 08:37:18 51°13.688 2°55.906 87.8   214.8 7.7
2001-10-29 08:37:23 51°13.688 2°55.906 87.8   262.4 7.6
2001-10-29 08:37:27 51°13.688 2°55.906 87.8   245.6 7.3
2001-10-29 08:37:33 51°13.688 2°55.906 87.7   178.1 7.3
2001-10-29 08:37:38 51°13.687 2°55.906 87.7   307.2 7.1
2001-10-29 08:37:43 51°13.687 2°55.906 87.5   291.1 7.3
2001-10-29 08:37:47 51°13.687 2°55.906 87.5   226.6 7.4
2001-10-29 08:37:53 51°13.687 2°55.906 87.3   135.5 7.5
2001-10-29 08:37:58 51°13.687 2°55.906 87   170.8 7.3
2001-10-29 08:38:03 51°13.687 2°55.906 86.8   125 7.3
2001-10-29 08:38:08 51°13.687 2°55.906 86.8   91.1 7.5
2001-10-29 08:38:13 51°13.687 2°55.906 86.7   145.4 7.6
2001-10-29 08:38:18 51°13.687 2°55.906 86.5   294.8 7.6
2001-10-29 08:38:23 51°13.687 2°55.906 86.5   249 7.6
2001-10-29 08:38:28 51°13.687 2°55.906 86.5   178.4 7.6
2001-10-29 08:38:33 51°13.687 2°55.906 86.5   220 7.7
2001-10-29 08:38:38 51°13.687 2°55.906 86.3   105.9 7.7
2001-10-29 08:38:43 51°13.687 2°55.906 86.3   82.3 7.6
2001-10-29 08:38:48 51°13.687 2°55.906 86.2   314.1 7.5
2001-10-29 08:38:53 51°13.687 2°55.906 86.2   226.4 7.7
2001-10-29 08:38:58 51°13.687 2°55.906 86   146 7.7
2001-10-29 08:39:03 51°13.687 2°55.906 86   131 7.7
2001-10-29 08:39:07 51°13.687 2°55.906 86   181.7 7.7
2001-10-29 08:39:13 51°13.687 2°55.906 86   152.4 7.7
2001-10-29 08:39:18 51°13.687 2°55.906 86   129.5 7.4
2001-10-29 08:39:23 51°13.687 2°55.906 85.8   291.7 7.3
2001-10-29 08:39:27 51°13.687 2°55.906 85.8   212.7 7.3
2001-10-29 08:39:34 51°13.687 2°55.906 85.8   179.1 7.5
2001-10-29 08:39:38 51°13.687 2°55.906 85.8   119.4 7.7
2001-10-29 08:39:43 51°13.687 2°55.906 85.7   65.4 7.7
2001-10-29 08:39:48 51°13.687 2°55.906 85.7   9.6 7.4
2001-10-29 08:39:53 51°13.687 2°55.906 85.7   195.3 7.2
2001-10-29 08:39:58 51°13.687 2°55.906 85.8   160 7.2
2001-10-29 08:40:03 51°13.687 2°55.906 85.8   93.1 7.5
2001-10-29 08:40:08 51°13.687 2°55.906 85.8   47 7.6
2001-10-29 08:40:13 51°13.687 2°55.906 85.7   75.4 7.7
2001-10-29 08:40:18 51°13.687 2°55.906 85.7   128.5 -999
2001-10-29 08:40:23 51°13.687 2°55.905 85.7   204 7.7
2001-10-29 08:40:28 51°13.687 2°55.906 85.8   227.5 7.7
2001-10-29 08:40:34 51°13.687 2°55.906 85.8   235.3 7.7
2001-10-29 08:40:38 51°13.687 2°55.906 85.7   9.1 7.6
2001-10-29 08:40:43 51°13.687 2°55.906 85.7   321.6 7.7
2001-10-29 08:40:48 51°13.687 2°55.905 85.7   212.9 7.7
2001-10-29 08:40:53 51°13.687 2°55.905 85.7   143.2 7.7
2001-10-29 08:40:58 51°13.687 2°55.905 85.7   75.4 7.7
2001-10-29 08:41:03 51°13.687 2°55.905 85.7   100.6 7.7
2001-10-29 08:41:08 51°13.687 2°55.905 85.7   193.6 7.7
2001-10-29 08:41:13 51°13.687 2°55.905 85.7   228.8 7.7
2001-10-29 08:41:18 51°13.687 2°55.905 85.7   220.5 7.6
2001-10-29 08:41:23 51°13.688 2°55.905 85.7   189 7.7
2001-10-29 08:41:27 51°13.688 2°55.905 85.7   278.9 7.7
2001-10-29 08:41:33 51°13.688 2°55.905 85.8   310.3 7.7
2001-10-29 08:41:38 51°13.688 2°55.906 85.8   124.1 7.7
2001-10-29 08:41:43 51°13.688 2°55.906 85.7   76.7 7.7
2001-10-29 08:41:48 51°13.688 2°55.906 85.7   59.2 7.7
2001-10-29 08:41:53 51°13.688 2°55.906 85.7   152 7.7
2001-10-29 08:41:58 51°13.687 2°55.906 85.8   220.5 7.8
2001-10-29 08:42:03 51°13.687 2°55.906 85.8   210.4 7.8
2001-10-29 08:42:08 51°13.687 2°55.906 86   209.6 7.5
2001-10-29 08:42:13 51°13.687 2°55.906 85.8   17.2 7.2
2001-10-29 08:42:18 51°13.687 2°55.906 85.8   210.5 7.8
2001-10-29 08:42:23 51°13.687 2°55.906 85.8   93.4 7.8
2001-10-29 08:42:28 51°13.688 2°55.906 86   49.9 7.8
2001-10-29 08:42:33 51°13.688 2°55.906 86   46.3 7.8
2001-10-29 08:42:38 51°13.687 2°55.906 85.8   207.3 7.8
2001-10-29 08:42:43 51°13.687 2°55.906 85.8   208.7 7.7
2001-10-29 08:42:48 51°13.687 2°55.906 86   201.7 7.4
2001-10-29 08:42:53 51°13.687 2°55.906 86.2   186.3 7.4
2001-10-29 08:42:58 51°13.687 2°55.906 86.2   248.3 7.4
2001-10-29 08:43:03 51°13.687 2°55.906 86.2   265.8 7.5
2001-10-29 08:43:08 51°13.687 2°55.906 86.2   199.6 7.4
2001-10-29 08:43:13 51°13.687 2°55.906 86.2   167.8 7.6
2001-10-29 08:43:18 51°13.687 2°55.906 86.2   117.8 7.6
2001-10-29 08:43:23 51°13.687 2°55.906 86.2   75.5 7.7
2001-10-29 08:43:27 51°13.687 2°55.906 86.2   87.2 7.8
2001-10-29 08:43:33 51°13.687 2°55.906 86.2   112.2 7.8
2001-10-29 08:43:38 51°13.687 2°55.906 86.2   47.9 7.8
2001-10-29 08:43:43 51°13.687 2°55.906 86.3   315.5 7.8
2001-10-29 08:43:48 51°13.687 2°55.906 86.2   54.9 7.8
2001-10-29 08:43:53 51°13.687 2°55.906 86.3   70.7 7.8
2001-10-29 08:43:58 51°13.687 2°55.906 86.3   53.7 7.7
2001-10-29 08:44:03 51°13.687 2°55.906 86.3   49.6 7.6
2001-10-29 08:44:08 51°13.687 2°55.906 86.5   88.4 7.8
2001-10-29 08:44:13 51°13.688 2°55.906 86.5   42 7.9
2001-10-29 08:44:18 51°13.688 2°55.906 86.3   52.2 7.8
2001-10-29 08:44:23 51°13.688 2°55.906 86.3   206.4 7.8
2001-10-29 08:44:27 51°13.688 2°55.906 86.5   219.2 7.8
2001-10-29 08:44:33 51°13.688 2°55.906 86.7   245.8 7.8
2001-10-29 08:44:38 51°13.688 2°55.906 86.7   72.8 7.8
2001-10-29 08:44:43 51°13.688 2°55.906 86.5   80.4 7.9
2001-10-29 08:44:49 51°13.688 2°55.906 86.7   70.9 7.8
2001-10-29 08:44:53 51°13.688 2°55.906 86.7   43.6 7.8
2001-10-29 08:44:58 51°13.688 2°55.906 86.5   60.3 7.8
2001-10-29 08:45:03 51°13.688 2°55.906 86.2   73.1 7.8
2001-10-29 08:45:08 51°13.688 2°55.906 85.7   139.1 7.8
2001-10-29 08:45:14 51°13.688 2°55.906 85.3   143.8 7.8
2001-10-29 08:45:18 51°13.688 2°55.906 85   129.6 7.9
2001-10-29 08:45:23 51°13.687 2°55.906 84.5 0.1 106.1 7.8
2001-10-29 08:45:28 51°13.687 2°55.906 83.3 0.1 134.9 7.9
2001-10-29 08:45:33 51°13.687 2°55.906 81.7 0.1 186.5 7.9
2001-10-29 08:45:38 51°13.687 2°55.906 80.8   178.2 7.9
2001-10-29 08:45:43 51°13.687 2°55.906 80.2 0.1 197.4 7.8
2001-10-29 08:45:47 51°13.687 2°55.906 79.3   196.9 7.9
2001-10-29 08:45:53 51°13.687 2°55.906 79.2   210.3 7.8
2001-10-29 08:45:58 51°13.687 2°55.906 78.8 0.1 211.7 7.8
2001-10-29 08:46:03 51°13.687 2°55.906 78.7   213.8 7.9
2001-10-29 08:46:07 51°13.687 2°55.907 78.7   184.8 7.9
2001-10-29 08:46:13 51°13.687 2°55.907 78.7   167.2 7.9
2001-10-29 08:46:18 51°13.687 2°55.907 78.3 0.1 175.7 7.9
2001-10-29 08:46:23 51°13.687 2°55.907 77.7 0.1 190.7 7.7
2001-10-29 08:46:28 51°13.687 2°55.907 76.8 0.1 194.5 7.7
2001-10-29 08:46:33 51°13.686 2°55.906 75.8 0.1 195.4 7.9
2001-10-29 08:46:38 51°13.686 2°55.906 74.7 0.1 195.2 8
2001-10-29 08:46:43 51°13.686 2°55.906 73.7 0.1 195.7 8
2001-10-29 08:46:48 51°13.686 2°55.906 72.3 0.1 202 8
2001-10-29 08:46:53 51°13.686 2°55.906 71 0.1 197.2 8
2001-10-29 08:46:58 51°13.685 2°55.906 69.7 0.2 195.1 8
2001-10-29 08:47:03 51°13.685 2°55.906 68 0.1 199.7 7.8
2001-10-29 08:47:08 51°13.685 2°55.905 66.7 0.1 208 7.9
2001-10-29 08:47:13 51°13.685 2°55.905 65.5 0.1 215.9 8.1
2001-10-29 08:47:18 51°13.685 2°55.905 64.8 0.1 245.2 8.1
2001-10-29 08:47:23 51°13.685 2°55.905 64.2 0.1 271.3 7.7
2001-10-29 08:47:27 51°13.685 2°55.904 63.3 0.3 287.5 7.6
2001-10-29 08:47:34 51°13.686 2°55.903 62.5 0.4 287.9 7.7
2001-10-29 08:47:38 51°13.686 2°55.902 61.8 0.5 286.8 8.1
2001-10-29 08:47:43 51°13.686 2°55.9 61.2 0.7 286.8 7.5
2001-10-29 08:47:48 51°13.687 2°55.897 60.8 0.9 286.1 8.2
2001-10-29 08:47:53 51°13.687 2°55.895 60.5 1.1 285 8.6
2001-10-29 08:47:58 51°13.688 2°55.892 60.3 1.3 283.6 -999
2001-10-29 08:48:04 51°13.688 2°55.887 60 1.5 283.2 -999
2001-10-29 08:48:09 51°13.689 2°55.884 59.3 1.7 282.7 -999
2001-10-29 08:48:14 51°13.69 2°55.879 58.5 2 281.5 -999
2001-10-29 08:48:19 51°13.69 2°55.874 57.7 2.1 280.7 -999
2001-10-29 08:48:24 51°13.691 2°55.868 56.8 2.4 279.4 -999
2001-10-29 08:48:29 51°13.691 2°55.863 55.7 2.5 278.5 -999
2001-10-29 08:48:34 51°13.692 2°55.856 54.7 2.7 277 -999
2001-10-29 08:48:39 51°13.692 2°55.85 53.7 2.9 276 -999
2001-10-29 08:48:44 51°13.692 2°55.843 52.8 3 275.2 -999
2001-10-29 08:48:49 51°13.693 2°55.836 52 3.1 274.7 -999
2001-10-29 08:48:54 51°13.693 2°55.829 51.2 3.1 273.9 -999
2001-10-29 08:48:59 51°13.693 2°55.823 50.2 3.1 273.2 -999
2001-10-29 08:49:04 51°13.693 2°55.816 49.2 3 272.5 -999
2001-10-29 08:49:09 51°13.694 2°55.81 48.2 2.9 272.5 -999
2001-10-29 08:49:14 51°13.694 2°55.803 46.8 2.9 270.9 -999
2001-10-29 08:49:19 51°13.694 2°55.797 45.5 2.9 269.5 -999
2001-10-29 08:49:24 51°13.693 2°55.791 44.3 2.9 268.4 12.3
2001-10-29 08:49:28 51°13.693 2°55.786 43 2.8 266.6 12.4
2001-10-29 08:49:33 51°13.693 2°55.78 41.8 2.8 265.7 13.4
2001-10-29 08:49:38 51°13.692 2°55.775 40.3 2.6 264.1 14.3
2001-10-29 08:49:43 51°13.692 2°55.769 39.2 2.5 262.9 15
2001-10-29 08:49:48 51°13.691 2°55.764 37.8 2.5 262.2 15.3
2001-10-29 08:49:53 51°13.691 2°55.759 36.5 2.3 260.7 15.3
2001-10-29 08:49:58 51°13.69 2°55.754 35.2 2.2 259.3 15.2
2001-10-29 08:50:03 51°13.689 2°55.75 33.8 2.2 258.3 14.8
2001-10-29 08:50:07 51°13.689 2°55.747 32.7 2 255.9 14.7
2001-10-29 08:50:13 51°13.688 2°55.742 31.3 2 254.6 14.6
2001-10-29 08:50:18 51°13.687 2°55.738 30.3 1.9 253.2 14.8
2001-10-29 08:50:23 51°13.687 2°55.734 29.3 1.8 252.3 15
2001-10-29 08:50:28 51°13.686 2°55.731 28.5 1.6 253.2 15.1
2001-10-29 08:50:33 51°13.686 2°55.729 26.5 1.3 255 14.8
2001-10-29 08:50:38 51°13.686 2°55.728 22.5 0.6 265.4 14.5
2001-10-29 08:50:43 51°13.687 2°55.729 17.2 0.3 305.6 14.6
2001-10-29 08:50:47 51°13.688 2°55.729 11.2 0.6 24.8 14.6
2001-10-29 08:50:53 51°13.689 2°55.731 5 1 32.9 13.8
2001-10-29 08:50:58 51°13.691 2°55.733 357.7 1.4 29.4 13.8
2001-10-29 08:51:03 51°13.694 2°55.734 350.7 1.7 26.7 14.5
2001-10-29 08:51:08 51°13.697 2°55.736 343.8 2.1 19.4 14.6
2001-10-29 08:51:13 51°13.701 2°55.737 337.2 2.3 14.9 15
2001-10-29 08:51:18 51°13.704 2°55.737 330.2 2.6 6.6 14.4
2001-10-29 08:51:23 51°13.708 2°55.736 323.3 2.8 1.6 13.8
2001-10-29 08:51:28 51°13.713 2°55.735 316.3 3 353.6 13.6
2001-10-29 08:51:33 51°13.717 2°55.733 309.8 3.1 351.2 13.1
2001-10-29 08:51:38 51°13.722 2°55.73 304.8 3.5 341.1 12.5
2001-10-29 08:51:43 51°13.727 2°55.726 301.3 3.7 338.1 12.3
2001-10-29 08:51:47 51°13.731 2°55.722 299.2 4.2 334.6 12.5
2001-10-29 08:51:53 51°13.738 2°55.716 297.7 4.5 332.4 12.4
2001-10-29 08:51:58 51°13.744 2°55.71 296.8 4.8 330.8 11.8
2001-10-29 08:52:03 51°13.75 2°55.704 296.5 5.2 330 11.9
2001-10-29 08:52:08 51°13.757 2°55.698 296 5.5 329.1 11.7
2001-10-29 08:52:13 51°13.764 2°55.691 295.7 5.7 328.7 12
2001-10-29 08:52:18 51°13.771 2°55.683 295.5 6.1 328 11.7
2001-10-29 08:52:23 51°13.779 2°55.676 295.8 6.3 327.8 11.6
2001-10-29 08:52:28 51°13.787 2°55.668 296.8 6.5 328.2 11.9
2001-10-29 08:52:33 51°13.795 2°55.661 297.8 6.6 329 11.9
2001-10-29 08:52:38 51°13.803 2°55.653 298.5 6.9 329.7 11.6
2001-10-29 08:52:43 51°13.812 2°55.645 299.3 7 330.4 11.7
2001-10-29 08:52:47 51°13.819 2°55.639 300 7.3 331.2 11.9
2001-10-29 08:52:53 51°13.831 2°55.629 300.7 7.5 331.7 11.7
2001-10-29 08:52:58 51°13.841 2°55.621 301.3 7.9 332.5 11.9
2001-10-29 08:53:03 51°13.851 2°55.613 302 8.2 333 11.5
2001-10-29 08:53:08 51°13.862 2°55.604 302.8 8.4 333.6 12.2
2001-10-29 08:53:13 51°13.873 2°55.596 303 8.7 334.2 12.2
2001-10-29 08:53:18 51°13.884 2°55.587 303.3 8.9 334.5 11.9
2001-10-29 08:53:23 51°13.896 2°55.579 304.2 9.1 334.8 11.8
2001-10-29 08:53:28 51°13.908 2°55.57 305 9.2 335.5 11.9
2001-10-29 08:53:33 51°13.92 2°55.562 305.7 9.3 335.9 12
2001-10-29 08:53:38 51°13.932 2°55.554 306 9.5 336.2 12.1
2001-10-29 08:53:43 51°13.944 2°55.545 306.3 9.5 336.3 11.8
2001-10-29 08:53:48 51°13.956 2°55.537 306.2 9.6 336.5 11.7
2001-10-29 08:53:53 51°13.969 2°55.528 306.3 9.6 336.4 12.4
2001-10-29 08:53:58 51°13.981 2°55.519 306.5 9.7 336.2 12
2001-10-29 08:54:03 51°13.993 2°55.51 306.7 9.7 336.1 12.4
2001-10-29 08:54:07 51°14.003 2°55.503 306.5 9.7 336.2 12.3
2001-10-29 08:54:13 51°14.018 2°55.493 306.5 9.8 336.1 12.5
2001-10-29 08:54:18 51°14.031 2°55.484 307.2 9.8 336 11.9
2001-10-29 08:54:23 51°14.043 2°55.475 307.8 9.8 336.3 12.1
2001-10-29 08:54:28 51°14.056 2°55.466 307.5 9.9 336.5 12.1
2001-10-29 08:54:34 51°14.07 2°55.456 307.2 9.9 335.9 12.1
2001-10-29 08:54:38 51°14.081 2°55.449 307.5 9.9 335.7 11.9
2001-10-29 08:54:43 51°14.094 2°55.441 307.5 9.9 335.9 12
2001-10-29 08:54:48 51°14.106 2°55.432 307.3 9.9 335.9 12
2001-10-29 08:54:53 51°14.119 2°55.423 307.2 9.9 335.6 12.1
2001-10-29 08:54:58 51°14.131 2°55.413 306.5 9.8 334.9 12.1
2001-10-29 08:55:03 51°14.143 2°55.404 305.3 9.8 334.3 12.2
2001-10-29 08:55:07 51°14.153 2°55.396 304.2 9.8 332.9 12.1
2001-10-29 08:55:13 51°14.167 2°55.382 302.8 9.8 331.3 12.1
2001-10-29 08:55:18 51°14.179 2°55.371 301.2 9.8 329.6 12.1
2001-10-29 08:55:23 51°14.19 2°55.359 299.5 9.8 328.2 12.2
2001-10-29 08:55:28 51°14.201 2°55.347 297.8 9.8 325.9 12.2
2001-10-29 08:55:33 51°14.212 2°55.334 296 9.8 325.2 12.2
2001-10-29 08:55:38 51°14.222 2°55.32 294.2 9.7 322.3 12.2
2001-10-29 08:55:43 51°14.232 2°55.306 292.7 9.7 320.8 12.3
2001-10-29 08:55:48 51°14.242 2°55.292 291.7 9.7 319.1 12.2
2001-10-29 08:55:53 51°14.252 2°55.277 290.2 9.7 318 12.2
2001-10-29 08:55:58 51°14.262 2°55.262 288.7 9.7 316 12.3
2001-10-29 08:56:03 51°14.271 2°55.246 287.2 9.8 314.3 12.2
2001-10-29 08:56:08 51°14.28 2°55.229 285.7 9.8 313.3 12.3
2001-10-29 08:56:13 51°14.289 2°55.213 284.5 9.9 311.4 12.2
2001-10-29 08:56:18 51°14.298 2°55.196 283.3 9.9 310 12.3
2001-10-29 08:56:23 51°14.306 2°55.179 282.7 9.9 309.5 12.3
2001-10-29 08:56:28 51°14.315 2°55.162 282.2 9.9 309 12.2
2001-10-29 08:56:33 51°14.324 2°55.145 282 9.9 308.6 12.3
2001-10-29 08:56:38 51°14.332 2°55.128 282.2 9.9 308.6 12.2
2001-10-29 08:56:43 51°14.341 2°55.111 282.3 9.9 308.7 12.3
2001-10-29 08:56:48 51°14.349 2°55.094 282.3 9.9 308.6 12.4
2001-10-29 08:56:53 51°14.358 2°55.077 282.5 9.9 308.8 12.4
2001-10-29 08:56:58 51°14.367 2°55.06 283.2 9.9 309.8 12
2001-10-29 08:57:03 51°14.376 2°55.044 284.7 9.9 311.5 11.9
2001-10-29 08:57:07 51°14.385 2°55.032 286.8 9.9 315.5 12.1
2001-10-29 08:57:13 51°14.397 2°55.016 289.7 9.9 318.3 12.1
2001-10-29 08:57:18 51°14.408 2°55.002 289.5 9.8 320.3 12
2001-10-29 08:57:23 51°14.417 2°54.987 286 9.8 319 11.9
2001-10-29 08:57:28 51°14.426 2°54.971 281.2 9.6 313.7 12
2001-10-29 08:57:34 51°14.434 2°54.95 275.7 9.5 307.7 11.8
2001-10-29 08:57:38 51°14.439 2°54.936 269.7 9.3 301.3 12.1
2001-10-29 08:57:43 51°14.443 2°54.917 264 9.2 296.6 12.2
2001-10-29 08:57:48 51°14.447 2°54.898 259.2 9.1 289.4 12.2
2001-10-29 08:57:54 51°14.45 2°54.875 255 9 285.5 12.3
2001-10-29 08:57:58 51°14.451 2°54.859 251.2 9 279.6 12.2
2001-10-29 08:58:03 51°14.452 2°54.839 248.2 9 276.9 12.2
2001-10-29 08:58:09 51°14.453 2°54.814 246.8 9.2 273.9 12.3
2001-10-29 08:58:13 51°14.453 2°54.798 245.7 9.2 272.2 12.2
2001-10-29 08:58:18 51°14.452 2°54.777 244.7 9.3 270.8 12.2
2001-10-29 08:58:23 51°14.452 2°54.757 243.2 9.3 269.4 12.2
2001-10-29 08:58:28 51°14.451 2°54.736 241.5 9.4 267.5 12.2
2001-10-29 08:58:33 51°14.45 2°54.714 241.2 9.5 266.7 12.2
2001-10-29 08:58:38 51°14.449 2°54.693 241.5 9.6 266 12.1
2001-10-29 08:58:43 51°14.448 2°54.672 241.3 9.6 265.9 12.1
2001-10-29 08:58:48 51°14.447 2°54.651 241.3 9.6 265.6 12.1
2001-10-29 08:58:53 51°14.446 2°54.629 240.8 9.7 265.2 12.2
2001-10-29 08:58:58 51°14.444 2°54.608 241.2 9.7 264.8 12.2
2001-10-29 08:59:03 51°14.443 2°54.587 240.7 9.7 264.9 12.2
2001-10-29 08:59:08 51°14.442 2°54.565 240.7 9.7 264.6 12.3
2001-10-29 08:59:13 51°14.44 2°54.544 240.3 9.7 264.3 12.3
2001-10-29 08:59:18 51°14.439 2°54.523 240.3 9.7 263.7 12.2
2001-10-29 08:59:23 51°14.437 2°54.501 240.3 9.8 263.6 12.2
2001-10-29 08:59:27 51°14.436 2°54.484 239.8 9.7 262.4 12.3
2001-10-29 08:59:33 51°14.433 2°54.459 239.5 9.7 262.4 12.2
2001-10-29 08:59:38 51°14.431 2°54.438 239.3 9.7 261.7 12.1
2001-10-29 08:59:43 51°14.429 2°54.416 239.2 9.7 261.6 12
2001-10-29 08:59:48 51°14.427 2°54.395 239 9.7 260.9 11.8
2001-10-29 08:59:54 51°14.425 2°54.37 238.8 9.7 260.7 11.8
2001-10-29 08:59:58 51°14.423 2°54.353 238.3 9.7 260.4 11.8
2001-10-29 09:00:03 51°14.42 2°54.332 238.3 9.7 259.9 11.8
2001-10-29 09:00:07 51°14.419 2°54.315 238 9.7 259.5 11.8
2001-10-29 09:00:13 51°14.416 2°54.29 237.5 9.7 259 11.8
2001-10-29 09:00:18 51°14.413 2°54.269 237.7 9.7 258.7 11.7
2001-10-29 09:00:23 51°14.41 2°54.248 237.8 9.7 258.7 11.7
2001-10-29 09:00:28 51°14.408 2°54.228 238.2 9.7 258.7 11.7
2001-10-29 09:00:33 51°14.405 2°54.206 238.5 9.7 258.9 11.7
2001-10-29 09:00:38 51°14.403 2°54.184 239.5 9.9 259.9 11.7
2001-10-29 09:00:43 51°14.4 2°54.162 240.5 10 260.1 11.6
2001-10-29 09:00:48 51°14.398 2°54.14 241.3 10.1 261.1 11.7
2001-10-29 09:00:53 51°14.396 2°54.118 241.8 10.1 261.4 11.6
2001-10-29 09:00:58 51°14.394 2°54.096 241.5 10.3 262 11.5
2001-10-29 09:01:03 51°14.391 2°54.073 239.3 10.4 260 11.6
2001-10-29 09:01:08 51°14.388 2°54.051 236 10.4 258.4 11.6
2001-10-29 09:01:13 51°14.382 2°54.029 231.5 10.4 253.5 11.6
2001-10-29 09:01:18 51°14.376 2°54.009 227.2 10.5 247.6 11.5
2001-10-29 09:01:23 51°14.369 2°53.988 224.8 10.5 244.7 11.6
2001-10-29 09:01:28 51°14.362 2°53.968 223.2 10.5 242.2 11.6
2001-10-29 09:01:33 51°14.354 2°53.948 222.3 10.6 239.7 11.8
2001-10-29 09:01:38 51°14.347 2°53.927 221.7 10.7 239.1 11.7
2001-10-29 09:01:43 51°14.339 2°53.907 222.3 10.7 238.4 11.6
2001-10-29 09:01:48 51°14.331 2°53.886 222.3 10.8 238.6 11.7
2001-10-29 09:01:53 51°14.323 2°53.866 221.7 10.9 238.6 11.7
2001-10-29 09:01:58 51°14.314 2°53.846 221.5 11 237 11.4
2001-10-29 09:02:03 51°14.306 2°53.825 221.5 11.1 237.3 11.7
2001-10-29 09:02:09 51°14.296 2°53.799 222.2 11.2 237 11.6
2001-10-29 09:02:13 51°14.289 2°53.782 222.8 11.3 238.2 11.7
2001-10-29 09:02:18 51°14.281 2°53.761 222.7 11.3 238.1 11.7
2001-10-29 09:02:23 51°14.272 2°53.74 222.3 11.3 237.5 11.7
2001-10-29 09:02:28 51°14.264 2°53.719 222.2 11.3 237.5 11.5
2001-10-29 09:02:33 51°14.256 2°53.698 222 11.3 237.2 11.6
2001-10-29 09:02:38 51°14.247 2°53.677 221.7 11.4 236.8 11.6
2001-10-29 09:02:43 51°14.239 2°53.655 222.8 11.4 237.4 11.6
2001-10-29 09:02:48 51°14.231 2°53.633 223.5 11.4 237.9 11.6
2001-10-29 09:02:53 51°14.222 2°53.612 223.5 11.5 238.2 11.6
2001-10-29 09:02:58 51°14.214 2°53.59 224.2 11.5 238.9 11.7
2001-10-29 09:03:03 51°14.206 2°53.568 225.5 11.6 239.1 11.7
2001-10-29 09:03:09 51°14.197 2°53.54 226.3 11.6 240.3 11.7
2001-10-29 09:03:13 51°14.19 2°53.522 226.7 11.8 240.5 11.7
2001-10-29 09:03:18 51°14.183 2°53.499 226.7 11.7 240.5 11.8
2001-10-29 09:03:23 51°14.175 2°53.476 226.7 11.7 240.4 11.7
2001-10-29 09:03:28 51°14.168 2°53.453 227.2 11.8 241.1 11.7
2001-10-29 09:03:33 51°14.159 2°53.431 225.8 11.8 239.9 11.7
2001-10-29 09:03:38 51°14.15 2°53.409 225.2 11.9 239.4 11.8
2001-10-29 09:03:43 51°14.141 2°53.387 225.3 11.9 238.5 11.8
2001-10-29 09:03:48 51°14.132 2°53.364 225.7 11.9 239 11.8
2001-10-29 09:03:54 51°14.122 2°53.337 225.5 12 238.4 11.9
2001-10-29 09:03:58 51°14.115 2°53.318 225.2 12 239 11.9
2001-10-29 09:04:03 51°14.106 2°53.296 225.3 12 238 11.9
2001-10-29 09:04:08 51°14.098 2°53.273 226.2 12 238.6 12
2001-10-29 09:04:13 51°14.088 2°53.252 225.7 12 237.9 11.9
2001-10-29 09:04:18 51°14.079 2°53.229 226.7 12 238.6 12
2001-10-29 09:04:23 51°14.07 2°53.207 226.8 12 238.5 12
2001-10-29 09:04:28 51°14.063 2°53.184 229 12 239.3 12
2001-10-29 09:04:33 51°14.055 2°53.161 229.7 11.9 241 12
2001-10-29 09:04:38 51°14.047 2°53.137 230.2 11.9 242.3 12.1
2001-10-29 09:04:43 51°14.038 2°53.114 229.3 12 241.5 12.2
2001-10-29 09:04:48 51°14.03 2°53.091 227.3 12.1 240.3 12.2
2001-10-29 09:04:53 51°14.021 2°53.069 228 12.1 238.8 12.2
2001-10-29 09:04:58 51°14.013 2°53.046 228.5 11.9 239.4 12.2
2001-10-29 09:05:03 51°14.004 2°53.024 227.5 11.9 239 12.2
2001-10-29 09:05:08 51°13.995 2°53.001 226.7 12 238.7 12.2
2001-10-29 09:05:13 51°13.985 2°52.98 224 12 236 12.2
2001-10-29 09:05:18 51°13.976 2°52.958 223.8 12 234.7 12.3
2001-10-29 09:05:23 51°13.966 2°52.937 224.5 12 234 12.3
2001-10-29 09:05:28 51°13.957 2°52.915 225.8 12 235.4 12.4
2001-10-29 09:05:33 51°13.948 2°52.892 227.8 12 236.9 12.3
2001-10-29 09:05:38 51°13.94 2°52.868 231.3 12 240.1 12.4
2001-10-29 09:05:43 51°13.933 2°52.845 233.5 11.9 242.6 12.4
2001-10-29 09:05:48 51°13.926 2°52.821 235.2 11.9 244.1 12.4
2001-10-29 09:05:53 51°13.919 2°52.797 235.2 12 245.5 12.4
2001-10-29 09:05:58 51°13.912 2°52.773 232.8 12 243.8 12.5
2001-10-29 09:06:03 51°13.903 2°52.751 231.2 11.9 241.5 12.5
2001-10-29 09:06:08 51°13.895 2°52.728 229.7 11.9 239.2 12.5
2001-10-29 09:06:14 51°13.884 2°52.702 228.7 11.9 237.7 12.5
2001-10-29 09:06:18 51°13.877 2°52.684 228 12 236.9 12.5
2001-10-29 09:06:23 51°13.868 2°52.661 229 12 237.2 12.5
2001-10-29 09:06:28 51°13.859 2°52.639 229.7 12 238 12.5
2001-10-29 09:06:33 51°13.852 2°52.616 231.7 11.9 239.9 12.6
2001-10-29 09:06:38 51°13.843 2°52.594 232.2 11.8 240.4 12.6
2001-10-29 09:06:43 51°13.836 2°52.57 231.3 11.8 241.2 12.5
2001-10-29 09:06:48 51°13.827 2°52.548 231.3 11.9 239.5 12.6
2001-10-29 09:06:53 51°13.818 2°52.526 230.5 11.9 239.2 12.7
2001-10-29 09:06:58 51°13.81 2°52.503 231 11.9 238.8 12.6
2001-10-29 09:07:03 51°13.8 2°52.481 230.8 11.9 238.4 12.6
2001-10-29 09:07:08 51°13.792 2°52.458 231 11.9 239 12.6
2001-10-29 09:07:13 51°13.784 2°52.435 232.3 12 238.9 12.7
2001-10-29 09:07:18 51°13.776 2°52.412 232.3 12 240.1 12.7
2001-10-29 09:07:23 51°13.768 2°52.389 233.5 12 239.8 12.7
2001-10-29 09:07:28 51°13.76 2°52.366 234 11.9 240.9 12.6
2001-10-29 09:07:33 51°13.751 2°52.343 233.3 11.9 240 12.7
2001-10-29 09:07:38 51°13.743 2°52.32 233.3 11.9 240.3 12.6
2001-10-29 09:07:43 51°13.734 2°52.298 232.8 12 238.4 12.7
2001-10-29 09:07:48 51°13.726 2°52.275 232.3 12 240.1 12.8
2001-10-29 09:07:53 51°13.717 2°52.253 231.8 11.9 237.5 12.8
2001-10-29 09:07:58 51°13.708 2°52.231 230.7 11.9 237.3 12.7
2001-10-29 09:08:03 51°13.7 2°52.208 232.3 11.9 237.5 12.8
2001-10-29 09:08:08 51°13.691 2°52.186 233.5 11.9 239 12.8
2001-10-29 09:08:13 51°13.684 2°52.162 236 11.9 239.3 12.8
2001-10-29 09:08:18 51°13.676 2°52.139 237.3 11.9 242.4 12.8
2001-10-29 09:08:23 51°13.668 2°52.116 236.2 11.9 242.7 12.6
2001-10-29 09:08:28 51°13.66 2°52.093 235.3 11.9 241.6 12.8
2001-10-29 09:08:34 51°13.651 2°52.065 234.5 11.9 240.6 12.9
2001-10-29 09:08:38 51°13.643 2°52.048 233.5 12 238.4 12.8
2001-10-29 09:08:43 51°13.635 2°52.025 233.5 12 239.5 12.7
2001-10-29 09:08:48 51°13.626 2°52.003 233 11.9 237.3 12.7
2001-10-29 09:08:53 51°13.617 2°51.981 232.5 11.9 237.7 12.8
2001-10-29 09:08:58 51°13.607 2°51.959 231.3 11.9 235.9 12.8
2001-10-29 09:09:03 51°13.598 2°51.937 231.7 12 236.2 12.8
2001-10-29 09:09:08 51°13.589 2°51.915 232.8 11.9 236.4 12.6
2001-10-29 09:09:13 51°13.581 2°51.893 234.7 11.9 238.5 12.7
2001-10-29 09:09:18 51°13.572 2°51.87 236.5 11.9 240.1 12.7
2001-10-29 09:09:23 51°13.565 2°51.846 238 12 241.8 12.6
2001-10-29 09:09:28 51°13.556 2°51.824 237 11.9 241.2 12.7
2001-10-29 09:09:34 51°13.546 2°51.797 235.5 11.9 240.1 12.6
2001-10-29 09:09:38 51°13.538 2°51.779 233.2 11.9 237.1 12.7
2001-10-29 09:09:43 51°13.529 2°51.758 231.2 11.9 235.1 12.7
2001-10-29 09:09:48 51°13.519 2°51.737 230.2 12 233.3 12.6
2001-10-29 09:09:53 51°13.509 2°51.715 231.8 12 234.3 12.8
2001-10-29 09:09:58 51°13.5 2°51.693 233.2 12 235 12.8
2001-10-29 09:10:03 51°13.492 2°51.67 235.7 11.9 237.7 12.7
2001-10-29 09:10:08 51°13.483 2°51.647 238.3 11.9 239.6 12.8
2001-10-29 09:10:13 51°13.477 2°51.623 240.5 11.9 242.8 12.9
2001-10-29 09:10:18 51°13.469 2°51.6 241.3 11.9 244.1 12.9
2001-10-29 09:10:23 51°13.462 2°51.576 240.5 11.9 244.2 12.8
2001-10-29 09:10:28 51°13.454 2°51.553 239 11.9 242.4 12.9
2001-10-29 09:10:33 51°13.446 2°51.53 238.8 11.9 241.2 12.9
2001-10-29 09:10:38 51°13.438 2°51.507 239 11.9 240.9 12.9
2001-10-29 09:10:43 51°13.43 2°51.483 240.7 12 241.8 13
2001-10-29 09:10:48 51°13.422 2°51.46 240.3 11.9 242.3 13
2001-10-29 09:10:53 51°13.415 2°51.437 239.8 11.9 242.2 13
2001-10-29 09:10:58 51°13.407 2°51.414 240.3 11.9 242.2 13
2001-10-29 09:11:03 51°13.4 2°51.39 240.7 11.9 242 13
2001-10-29 09:11:08 51°13.391 2°51.367 240.2 11.9 242.1 13
2001-10-29 09:11:13 51°13.384 2°51.344 240.8 11.9 241.8 13
2001-10-29 09:11:18 51°13.376 2°51.321 241 11.9 242.3 13
2001-10-29 09:11:23 51°13.368 2°51.297 241.3 11.9 242.2 13
2001-10-29 09:11:28 51°13.361 2°51.274 241.7 11.9 242.5 12.9
2001-10-29 09:11:33 51°13.353 2°51.251 241.5 11.9 242.2 12.9
2001-10-29 09:11:38 51°13.345 2°51.228 241.8 11.9 242.4 13
2001-10-29 09:11:43 51°13.338 2°51.204 242 11.9 242 13.1
2001-10-29 09:11:48 51°13.33 2°51.181 241.5 11.9 242.3 13.1
2001-10-29 09:11:53 51°13.322 2°51.158 241.3 11.9 241.6 13.1
2001-10-29 09:11:58 51°13.313 2°51.136 238.3 11.9 239.4 13.2
2001-10-29 09:12:03 51°13.304 2°51.114 236.2 11.9 237.6 13.1
2001-10-29 09:12:08 51°13.294 2°51.093 235 11.9 236 13.2
2001-10-29 09:12:13 51°13.285 2°51.071 236.2 11.9 235.3 13.2
2001-10-29 09:12:18 51°13.276 2°51.049 238 11.8 236.6 13.2
2001-10-29 09:12:23 51°13.269 2°51.026 240.8 11.9 238.8 13.2
2001-10-29 09:12:28 51°13.26 2°51.003 241.3 11.9 240.5 13.2
2001-10-29 09:12:33 51°13.253 2°50.98 240.7 11.9 240.7 13.2
2001-10-29 09:12:38 51°13.244 2°50.957 241.5 11.9 240 13.2
2001-10-29 09:12:43 51°13.236 2°50.934 241 11.9 240.2 13.2
2001-10-29 09:12:48 51°13.228 2°50.912 241.7 11.9 240.1 13.3
2001-10-29 09:12:53 51°13.22 2°50.889 241.5 11.9 240.8 13.3
2001-10-29 09:12:58 51°13.212 2°50.866 240.8 11.9 240 13.2
2001-10-29 09:13:03 51°13.203 2°50.843 240.8 11.9 238.9 13.2
2001-10-29 09:13:08 51°13.195 2°50.82 242.2 11.9 239.8 13.3
2001-10-29 09:13:14 51°13.185 2°50.793 242.3 11.9 240.2 13.2
2001-10-29 09:13:18 51°13.178 2°50.775 241.7 11.8 239.9 13.4
2001-10-29 09:13:23 51°13.17 2°50.753 240.2 11.8 239 13.3
2001-10-29 09:13:28 51°13.16 2°50.731 239.5 11.9 237.7 13.3
2001-10-29 09:13:33 51°13.152 2°50.709 239.3 11.9 237.2 13.3
2001-10-29 09:13:38 51°13.143 2°50.687 240.2 11.8 237.8 13.4
2001-10-29 09:13:43 51°13.134 2°50.665 241 11.8 238.2 13.3
2001-10-29 09:13:48 51°13.127 2°50.641 243.3 11.9 240.6 13.3
2001-10-29 09:13:54 51°13.118 2°50.613 245.8 11.8 242.4 13.3
2001-10-29 09:13:58 51°13.113 2°50.594 247.5 11.9 245 13.3
2001-10-29 09:14:03 51°13.106 2°50.571 247.2 11.8 245.5 13.3
2001-10-29 09:14:08 51°13.099 2°50.548 246.3 11.8 244.1 13.4
2001-10-29 09:14:13 51°13.09 2°50.526 244.5 11.8 242.8 13.3
2001-10-29 09:14:18 51°13.083 2°50.503 243 11.8 240.7 13.4
2001-10-29 09:14:23 51°13.074 2°50.481 242.3 11.8 239.4 13.4
2001-10-29 09:14:29 51°13.064 2°50.454 243.3 11.8 239.9 13.4
2001-10-29 09:14:33 51°13.057 2°50.437 242 11.8 239 13.3
2001-10-29 09:14:38 51°13.048 2°50.414 241 11.9 238.2 13.4
2001-10-29 09:14:43 51°13.039 2°50.393 239.2 11.8 236.3 13.5
2001-10-29 09:14:48 51°13.029 2°50.372 238 11.8 234.8 13.4
2001-10-29 09:14:53 51°13.019 2°50.351 238.8 11.9 234.2 13.4
2001-10-29 09:14:58 51°13.011 2°50.329 240.2 11.9 235.8 13.4
2001-10-29 09:15:03 51°13.002 2°50.306 242.3 11.9 236.9 13.4
2001-10-29 09:15:08 51°12.994 2°50.283 245.3 11.9 239.7 13.4
2001-10-29 09:15:13 51°12.987 2°50.259 246.3 11.9 241.8 13.4
2001-10-29 09:15:18 51°12.979 2°50.237 246 11.9 242 13.5
2001-10-29 09:15:23 51°12.971 2°50.214 244.8 11.9 241.8 13.5
2001-10-29 09:15:28 51°12.962 2°50.192 242.8 11.9 238.8 13.5
2001-10-29 09:15:33 51°12.953 2°50.169 241.3 11.9 237.8 13.4
2001-10-29 09:15:38 51°12.944 2°50.148 241.7 11.9 236.5 13.5
2001-10-29 09:15:43 51°12.936 2°50.125 243.7 11.9 238.1 13.5
2001-10-29 09:15:48 51°12.928 2°50.102 245.2 11.9 239.6 13.5
2001-10-29 09:15:53 51°12.919 2°50.08 243.8 11.9 240.3 13.5
2001-10-29 09:15:58 51°12.911 2°50.057 243.3 11.9 238.8 13.5
2001-10-29 09:16:03 51°12.901 2°50.036 242 11.9 237.7 13.6
2001-10-29 09:16:08 51°12.893 2°50.013 242.8 11.9 237.6 13.6
2001-10-29 09:16:13 51°12.884 2°49.991 243.7 11.9 237.7 13.6
2001-10-29 09:16:18 51°12.876 2°49.968 244.7 11.9 239.1 13.6
2001-10-29 09:16:23 51°12.867 2°49.945 244.7 11.9 239.4 13.5
2001-10-29 09:16:28 51°12.859 2°49.923 245.3 11.9 239.6 13.6
2001-10-29 09:16:33 51°12.851 2°49.9 245.8 11.9 240.1 13.6
2001-10-29 09:16:38 51°12.842 2°49.877 245.5 11.9 240.1 13.6
2001-10-29 09:16:43 51°12.833 2°49.855 244.3 11.9 238.8 13.6
2001-10-29 09:16:48 51°12.825 2°49.833 243.2 12 238.3 13.6
2001-10-29 09:16:53 51°12.815 2°49.811 243 11.9 236.6 13.6
2001-10-29 09:16:58 51°12.806 2°49.789 243.5 11.9 236.6 13.6
2001-10-29 09:17:03 51°12.798 2°49.766 245.2 11.9 237.8 13.6
2001-10-29 09:17:09 51°12.788 2°49.739 246.3 11.9 239.1 13.6
2001-10-29 09:17:13 51°12.782 2°49.72 246.8 12 240.4 13.6
2001-10-29 09:17:18 51°12.773 2°49.698 246 11.9 239.1 13.6
2001-10-29 09:17:23 51°12.765 2°49.675 245.8 11.9 239.2 13.6
2001-10-29 09:17:28 51°12.756 2°49.653 245.8 11.9 238.7 13.6
2001-10-29 09:17:33 51°12.747 2°49.631 245.8 11.8 238.7 13.7
2001-10-29 09:17:38 51°12.739 2°49.609 245 11.8 238.3 13.7
2001-10-29 09:17:43 51°12.73 2°49.587 245.2 11.8 237.8 13.7
2001-10-29 09:17:48 51°12.721 2°49.565 244.3 11.8 237.8 13.7
2001-10-29 09:17:53 51°12.712 2°49.543 243.7 11.8 236.6 13.6
2001-10-29 09:17:58 51°12.704 2°49.52 245.7 11.9 238.2 13.7
2001-10-29 09:18:03 51°12.694 2°49.499 245.5 11.8 238.1 13.7
2001-10-29 09:18:09 51°12.684 2°49.472 245 11.8 238 13.7
2001-10-29 09:18:13 51°12.677 2°49.454 246.5 11.8 238.3 13.7
2001-10-29 09:18:18 51°12.67 2°49.431 250.2 11.9 241.3 13.7
2001-10-29 09:18:23 51°12.663 2°49.408 251.5 11.8 243.3 13.7
2001-10-29 09:18:28 51°12.655 2°49.385 249.8 11.8 243 13.7
2001-10-29 09:18:33 51°12.648 2°49.362 248.8 11.7 241.9 13.7
2001-10-29 09:18:38 51°12.638 2°49.341 246.7 11.7 238.7 13.7
2001-10-29 09:18:43 51°12.63 2°49.318 246.8 11.8 238.3 13.7
2001-10-29 09:18:49 51°12.62 2°49.292 247.8 11.8 238.5 13.8
2001-10-29 09:18:53 51°12.614 2°49.273 247.7 11.8 240.2 13.7
2001-10-29 09:18:58 51°12.605 2°49.251 247 11.8 238.3 13.8
2001-10-29 09:19:03 51°12.597 2°49.228 247.5 11.9 239.1 13.8
2001-10-29 09:19:08 51°12.589 2°49.206 249.2 11.8 239.5 13.9
2001-10-29 09:19:13 51°12.581 2°49.182 249.2 11.8 240.6 13.8
2001-10-29 09:19:18 51°12.573 2°49.16 249 11.8 240.3 13.8
2001-10-29 09:19:23 51°12.565 2°49.138 248.7 11.8 239.9 13.9
2001-10-29 09:19:28 51°12.556 2°49.116 248.2 11.8 239.2 14
2001-10-29 09:19:34 51°12.546 2°49.089 247.7 11.8 238.8 14
2001-10-29 09:19:38 51°12.539 2°49.071 247 11.7 238.5 13.8
2001-10-29 09:19:43 51°12.53 2°49.049 248.5 11.8 237.6 13.9
2001-10-29 09:19:48 51°12.523 2°49.026 250.3 11.8 240.1 13.9
2001-10-29 09:19:53 51°12.514 2°49.004 250.2 11.8 240.3 13.9
2001-10-29 09:19:58 51°12.506 2°48.981 249.7 11.8 240.6 13.7
2001-10-29 09:20:03 51°12.498 2°48.959 248.5 11.8 239.3 13.9
2001-10-29 09:20:08 51°12.489 2°48.937 246.8 11.8 237.6 13.8
2001-10-29 09:20:14 51°12.478 2°48.911 247 11.8 237.5 13.8
2001-10-29 09:20:18 51°12.471 2°48.893 248.2 11.8 237.9 13.9
2001-10-29 09:20:23 51°12.463 2°48.87 248.8 11.8 239.1 13.8
2001-10-29 09:20:28 51°12.455 2°48.847 250.3 11.8 239.4 13.9
2001-10-29 09:20:33 51°12.447 2°48.824 250.7 11.8 240.7 14
2001-10-29 09:20:38 51°12.438 2°48.802 249 11.8 239.5 13.7
2001-10-29 09:20:43 51°12.43 2°48.78 247.8 11.8 238.4 13.8
2001-10-29 09:20:49 51°12.419 2°48.755 246.7 11.8 237.3 14
2001-10-29 09:20:53 51°12.411 2°48.737 246.3 11.8 236.1 13.9
2001-10-29 09:20:58 51°12.403 2°48.715 248 11.8 236.8 13.8
2001-10-29 09:21:03 51°12.394 2°48.693 249.2 11.8 237.6 14
2001-10-29 09:21:08 51°12.386 2°48.67 249.7 11.7 239 13.7
2001-10-29 09:21:13 51°12.377 2°48.649 248.7 11.8 237.9 13.9
2001-10-29 09:21:18 51°12.368 2°48.627 247.8 11.8 237.3 13.9
2001-10-29 09:21:24 51°12.357 2°48.602 245.8 11.7 236 14
2001-10-29 09:21:28 51°12.349 2°48.585 245.3 11.8 234.3 13.7
2001-10-29 09:21:33 51°12.339 2°48.564 246.3 11.8 234.6 13.9
2001-10-29 09:21:38 51°12.331 2°48.542 248 11.7 236.7 13.9
2001-10-29 09:21:43 51°12.322 2°48.52 250 11.7 237.7 13.9
2001-10-29 09:21:48 51°12.315 2°48.496 252 11.7 240.8 13.9
2001-10-29 09:21:54 51°12.305 2°48.47 251.8 11.7 240.5 13.9
2001-10-29 09:21:58 51°12.299 2°48.452 250.2 11.7 240 13.9
2001-10-29 09:22:03 51°12.289 2°48.43 248.5 11.7 238.1 13.9
2001-10-29 09:22:08 51°12.28 2°48.409 247.7 11.7 237 13.9
2001-10-29 09:22:13 51°12.27 2°48.388 247 11.7 234.7 13.8
2001-10-29 09:22:18 51°12.262 2°48.366 247.8 11.7 236.7 13.7
2001-10-29 09:22:23 51°12.252 2°48.345 248.2 11.7 235.6 13.6
2001-10-29 09:22:28 51°12.245 2°48.322 250.2 11.8 238.4 13.7
2001-10-29 09:22:33 51°12.236 2°48.301 250.5 11.7 238.3 13.8
2001-10-29 09:22:38 51°12.227 2°48.279 249.7 11.7 237.3 13.9
2001-10-29 09:22:43 51°12.218 2°48.258 248.2 11.7 236.7 13.8
2001-10-29 09:22:48 51°12.209 2°48.236 248.5 11.7 236.5 13.7
2001-10-29 09:22:53 51°12.201 2°48.214 250.7 11.7 238.2 13.8
2001-10-29 09:22:58 51°12.193 2°48.191 253 11.7 240.4 13.9
2001-10-29 09:23:03 51°12.186 2°48.168 254.3 11.7 241.9 13.9
2001-10-29 09:23:08 51°12.179 2°48.145 255.5 11.7 243.2 13.8
2001-10-29 09:23:13 51°12.171 2°48.122 254.7 11.7 243.2 13.8
2001-10-29 09:23:18 51°12.164 2°48.099 253.5 11.7 242.2 13.8
2001-10-29 09:23:23 51°12.155 2°48.077 251.7 11.7 240.7 13.8
2001-10-29 09:23:28 51°12.147 2°48.055 251.3 11.7 239.2 13.9
2001-10-29 09:23:33 51°12.139 2°48.032 253.3 11.7 239.9 13.9
2001-10-29 09:23:38 51°12.131 2°48.01 253.2 11.6 240.6 13.7
2001-10-29 09:23:43 51°12.123 2°47.988 252.7 11.6 241.2 13.8
2001-10-29 09:23:48 51°12.115 2°47.965 253.3 11.7 240.3 13.8
2001-10-29 09:23:53 51°12.107 2°47.943 253.2 11.7 241.2 13.9
2001-10-29 09:23:58 51°12.099 2°47.92 253.5 11.7 240.7 13.9
2001-10-29 09:24:03 51°12.091 2°47.898 253.7 11.7 241 13.9
2001-10-29 09:24:08 51°12.084 2°47.875 254.2 11.7 241.3 13.9
2001-10-29 09:24:13 51°12.077 2°47.852 254.7 11.7 242 13.9
2001-10-29 09:24:18 51°12.069 2°47.829 255.3 11.7 242.3 13.9
2001-10-29 09:24:23 51°12.062 2°47.806 254.7 11.7 242.3 13.8
2001-10-29 09:24:28 51°12.053 2°47.785 253.8 11.6 240.5 13.8
2001-10-29 09:24:33 51°12.045 2°47.763 251.5 11.5 240 13.9
2001-10-29 09:24:38 51°12.036 2°47.742 250 11.6 237.5 13.8
2001-10-29 09:24:43 51°12.027 2°47.72 249.7 11.6 236.8 13.8
2001-10-29 09:24:48 51°12.019 2°47.698 250.2 11.6 236.5 13.8
2001-10-29 09:24:53 51°12.01 2°47.676 251.5 11.7 238.1 13.7
2001-10-29 09:24:58 51°12.003 2°47.653 255 11.7 240.8 13.7
2001-10-29 09:25:03 51°11.996 2°47.63 257 11.7 243 13.8
2001-10-29 09:25:08 51°11.989 2°47.607 257.5 11.7 244.3 13.8
2001-10-29 09:25:13 51°11.982 2°47.583 257 11.7 244.4 13.8
2001-10-29 09:25:18 51°11.975 2°47.561 256.3 11.6 243.9 13.8
2001-10-29 09:25:23 51°11.967 2°47.538 255.2 11.6 243.2 13.9
2001-10-29 09:25:28 51°11.959 2°47.515 254.3 11.7 242.3 13.8
2001-10-29 09:25:33 51°11.951 2°47.493 253.7 11.7 240.2 13.9
2001-10-29 09:25:38 51°11.943 2°47.471 252 11.6 239.5 13.8
2001-10-29 09:25:43 51°11.933 2°47.45 249.5 11.7 236.4 13.7
2001-10-29 09:25:49 51°11.922 2°47.425 248.8 11.7 236 13.6
2001-10-29 09:25:53 51°11.914 2°47.408 248.2 11.6 234 13.6
2001-10-29 09:25:58 51°11.905 2°47.387 249.7 11.7 235.1 13.6
2001-10-29 09:26:03 51°11.897 2°47.365 251.8 11.7 236.8 13.6
2001-10-29 09:26:08 51°11.889 2°47.342 252.8 11.7 238.9 13.7
2001-10-29 09:26:13 51°11.88 2°47.32 253.5 11.6 239.1 13.6
2001-10-29 09:26:18 51°11.872 2°47.298 253.5 11.7 239.8 13.6
2001-10-29 09:26:23 51°11.864 2°47.275 253.7 11.8 239.8 13.6
2001-10-29 09:26:29 51°11.854 2°47.249 252.3 11.7 239.5 13.6
2001-10-29 09:26:34 51°11.845 2°47.227 251.3 11.7 238.3 13.5
2001-10-29 09:26:38 51°11.838 2°47.21 252.2 11.8 237.7 13.4
2001-10-29 09:26:43 51°11.83 2°47.187 254.3 11.8 239.2 13.5
2001-10-29 09:26:48 51°11.822 2°47.164 256.2 11.7 241 13.5
2001-10-29 09:26:53 51°11.816 2°47.14 258.2 11.7 243.8 13.3
2001-10-29 09:26:58 51°11.809 2°47.117 259.3 11.7 245.4 13.5
2001-10-29 09:27:03 51°11.802 2°47.093 259.3 11.7 245.3 13.5
2001-10-29 09:27:09 51°11.794 2°47.066 258.2 11.7 245.3 13.4
2001-10-29 09:27:14 51°11.786 2°47.042 256.2 11.7 243.4 13.4
2001-10-29 09:27:18 51°11.78 2°47.024 255.8 11.7 242 13.5
2001-10-29 09:27:23 51°11.773 2°47.001 255.8 11.7 241.9 13.4
2001-10-29 09:27:28 51°11.765 2°46.979 255.3 11.7 241.9 13.6
2001-10-29 09:27:34 51°11.756 2°46.951 256.3 11.7 242.1 13.5
2001-10-29 09:27:38 51°11.749 2°46.932 256 11.8 241.9 13.4
2001-10-29 09:27:43 51°11.741 2°46.91 255 11.7 241.5 13.4
2001-10-29 09:27:49 51°11.731 2°46.883 254.5 11.8 239.8 13.3
2001-10-29 09:27:53 51°11.725 2°46.865 253.7 11.8 240.1 13.3
2001-10-29 09:27:58 51°11.716 2°46.843 253.3 11.8 238.8 13.3
2001-10-29 09:28:03 51°11.708 2°46.82 254.3 11.8 239.4 13.4
2001-10-29 09:28:08 51°11.7 2°46.797 255.2 11.8 240.5 13.3
2001-10-29 09:28:13 51°11.692 2°46.774 256.2 11.8 241 13.1
2001-10-29 09:28:18 51°11.685 2°46.752 256 11.8 241.6 13.2
2001-10-29 09:28:23 51°11.677 2°46.729 256.2 11.8 241.6 13.5
2001-10-29 09:28:28 51°11.669 2°46.706 256.3 11.8 242.1 13.4
2001-10-29 09:28:33 51°11.661 2°46.683 256.3 11.8 241.7 13.4
2001-10-29 09:28:38 51°11.653 2°46.66 255.7 11.8 241.7 13.4
2001-10-29 09:28:43 51°11.645 2°46.637 255.2 11.8 241.3 13.4
2001-10-29 09:28:48 51°11.637 2°46.614 255.2 11.8 240.8 13.3
2001-10-29 09:28:53 51°11.629 2°46.591 256.8 11.9 241.2 13.3
2001-10-29 09:28:58 51°11.621 2°46.568 256.8 11.9 242 13.2
2001-10-29 09:29:03 51°11.613 2°46.546 256.2 11.8 241.3 13.4
2001-10-29 09:29:08 51°11.606 2°46.523 256.5 11.9 241.6 13.2
2001-10-29 09:29:13 51°11.598 2°46.499 257.2 11.9 242.1 13.4
2001-10-29 09:29:18 51°11.59 2°46.476 256.2 11.9 241.7 13.3
2001-10-29 09:29:23 51°11.582 2°46.453 254.3 11.9 240.6 13.2
2001-10-29 09:29:28 51°11.574 2°46.43 254.2 11.9 239.3 13.4
2001-10-29 09:29:33 51°11.566 2°46.408 254.3 11.9 239.4 13.4
2001-10-29 09:29:38 51°11.558 2°46.385 254.7 11.9 239.8 13.4
2001-10-29 09:29:43 51°11.55 2°46.362 256.8 11.9 240.8 13.4
2001-10-29 09:29:49 51°11.541 2°46.334 258 11.8 242.1 13.5
2001-10-29 09:29:53 51°11.535 2°46.315 257.8 11.8 243.1 13.3
2001-10-29 09:29:58 51°11.527 2°46.293 256.7 11.7 242.3 13.3
2001-10-29 09:30:03 51°11.519 2°46.271 254.8 11.7 240.8 13.3
2001-10-29 09:30:08 51°11.511 2°46.248 253.8 11.7 239.6 13.3
2001-10-29 09:30:13 51°11.502 2°46.226 254.7 11.8 238.9 13.3
2001-10-29 09:30:18 51°11.494 2°46.203 254.7 11.8 239.9 13.3
2001-10-29 09:30:23 51°11.485 2°46.182 253.3 11.8 238 13.2
2001-10-29 09:30:28 51°11.477 2°46.158 254.3 11.9 238.9 13.1
2001-10-29 09:30:33 51°11.468 2°46.137 253.8 11.9 238.4 13.2
2001-10-29 09:30:38 51°11.46 2°46.114 254.2 11.8 239.3 13.1
2001-10-29 09:30:43 51°11.451 2°46.092 255.8 11.8 239.6 13.1
2001-10-29 09:30:49 51°11.442 2°46.064 256.7 11.8 240.8 13.1
2001-10-29 09:30:53 51°11.436 2°46.046 257.2 11.7 242.4 13.1
2001-10-29 09:30:58 51°11.429 2°46.023 257.5 11.8 242.6 13.1
2001-10-29 09:31:03 51°11.421 2°46 257.2 11.8 243.1 13.1
2001-10-29 09:31:08 51°11.414 2°45.975 258.8 11.9 243.3 13.1
2001-10-29 09:31:13 51°11.408 2°45.951 261.3 11.8 245.2 13.1
2001-10-29 09:31:18 51°11.402 2°45.927 262.3 11.8 247 12.9
2001-10-29 09:31:23 51°11.396 2°45.903 262.2 11.8 247.7 13.1
2001-10-29 09:31:28 51°11.389 2°45.879 261 11.8 247 13.1
2001-10-29 09:31:34 51°11.38 2°45.852 259.2 11.8 245.1 13.1
2001-10-29 09:31:38 51°11.374 2°45.833 258.2 11.9 243.4 13.1
2001-10-29 09:31:43 51°11.367 2°45.81 258 11.9 242.9 13.1
2001-10-29 09:31:49 51°11.358 2°45.782 258.2 11.9 243 13.1
2001-10-29 09:31:53 51°11.352 2°45.763 258.3 11.8 243.1 13.1
2001-10-29 09:31:58 51°11.344 2°45.74 257.2 11.8 242.4 13
2001-10-29 09:32:03 51°11.336 2°45.717 256.8 11.8 241.7 13
2001-10-29 09:32:08 51°11.328 2°45.695 256.5 11.8 241.5 13
2001-10-29 09:32:13 51°11.32 2°45.672 256.7 11.8 241 13
2001-10-29 09:32:18 51°11.312 2°45.649 256.8 11.8 241.3 13
2001-10-29 09:32:23 51°11.304 2°45.626 256.2 11.8 241.4 13
2001-10-29 09:32:28 51°11.296 2°45.604 255 11.8 240.5 13